createdAt,value
2018-10-11T00:01:15.375Z,4.50
2018-10-11T00:03:45.461Z,4.40
2018-10-11T00:06:16.537Z,4.80
2018-10-11T00:08:46.898Z,4.70
2018-10-11T00:11:16.916Z,4.30
2018-10-11T00:13:46.935Z,5.60
2018-10-11T00:16:17.932Z,4.80
2018-10-11T00:18:47.812Z,4.33
2018-10-11T00:21:17.937Z,4.30
2018-10-11T00:23:47.958Z,4.77
2018-10-11T00:26:19.223Z,5.30
2018-10-11T00:28:49.234Z,4.47
2018-10-11T00:31:19.350Z,5.83
2018-10-11T00:33:49.501Z,4.70
2018-10-11T00:36:20.606Z,5.80
2018-10-11T00:38:50.583Z,6.10
2018-10-11T00:41:20.558Z,6.63
2018-10-11T00:43:50.575Z,5.97
2018-10-11T00:46:21.187Z,6.10
2018-10-11T00:48:51.237Z,6.07
2018-10-11T00:51:21.233Z,5.90
2018-10-11T00:53:51.200Z,6.40
2018-10-11T00:56:21.174Z,5.87
2018-10-11T00:58:51.274Z,6.40
2018-10-11T01:01:21.405Z,6.33
2018-10-11T01:03:51.499Z,5.73
2018-10-11T01:06:21.729Z,5.13
2018-10-11T01:08:52.065Z,6.10
2018-10-11T01:11:22.132Z,6.80
2018-10-11T01:13:52.208Z,6.13
2018-10-11T01:16:23.352Z,6.57
2018-10-11T01:18:53.283Z,5.93
2018-10-11T01:21:23.275Z,5.73
2018-10-11T01:23:53.327Z,5.93
2018-10-11T01:26:24.030Z,5.63
2018-10-11T01:28:54.165Z,6.00
2018-10-11T01:31:25.310Z,6.30
2018-10-11T01:33:55.482Z,5.70
2018-10-11T01:36:26.512Z,5.90
2018-10-11T01:38:56.704Z,5.33
2018-10-11T01:41:26.766Z,5.07
2018-10-11T01:43:56.936Z,5.10
2018-10-11T01:46:27.313Z,5.57
2018-10-11T01:48:57.551Z,4.90
2018-10-11T01:51:27.625Z,5.13
2018-10-11T01:53:57.599Z,4.93
2018-10-11T01:56:28.085Z,4.47
2018-10-11T01:58:58.103Z,4.40
2018-10-11T02:01:28.154Z,5.63
2018-10-11T02:03:58.095Z,5.53
2018-10-11T02:06:28.867Z,6.20
2018-10-11T02:08:59.279Z,6.13
2018-10-11T02:11:29.397Z,6.30
2018-10-11T02:13:59.455Z,5.50
2018-10-11T02:16:29.524Z,5.60
2018-10-11T02:18:59.538Z,6.10
2018-10-11T02:21:29.681Z,5.10
2018-10-11T02:23:59.719Z,4.90
2018-10-11T02:26:30.063Z,6.50
2018-10-11T02:29:00.163Z,5.63
2018-10-11T02:31:30.152Z,5.70
2018-10-11T02:34:00.091Z,6.27
2018-10-11T02:36:30.715Z,5.70
2018-10-11T02:39:00.772Z,5.63
2018-10-11T02:41:30.696Z,5.40
2018-10-11T02:44:00.758Z,5.37
2018-10-11T02:46:31.258Z,6.40
2018-10-11T02:49:01.279Z,5.67
2018-10-11T02:51:31.403Z,6.17
2018-10-11T02:54:01.553Z,5.63
2018-10-11T02:56:32.852Z,6.53
2018-10-11T02:59:18.461Z,6.13
2018-10-11T03:01:48.722Z,6.57
2018-10-11T03:04:18.904Z,7.40
2018-10-11T03:06:49.170Z,6.20
2018-10-11T03:09:20.444Z,5.27
2018-10-11T03:11:50.590Z,5.87
2018-10-11T03:14:20.626Z,6.43
2018-10-11T03:16:51.344Z,7.87
2018-10-11T03:19:21.479Z,8.13
2018-10-11T03:21:51.565Z,7.20
2018-10-11T03:24:21.556Z,8.63
2018-10-11T03:26:54.375Z,8.33
2018-10-11T03:29:24.371Z,8.70
2018-10-11T03:31:54.213Z,7.57
2018-10-11T03:34:24.382Z,8.70
2018-10-11T03:36:54.631Z,8.13
2018-10-11T03:39:24.475Z,8.07
2018-10-11T03:41:54.543Z,8.40
2018-10-11T03:44:24.550Z,8.00
2018-10-11T03:46:55.459Z,7.90
2018-10-11T03:49:25.947Z,7.73
2018-10-11T03:51:56.000Z,7.40
2018-10-11T03:54:26.188Z,8.07
2018-10-11T03:56:56.265Z,6.90
2018-10-11T03:59:27.301Z,8.00
2018-10-11T04:01:57.351Z,6.73
2018-10-11T04:04:27.280Z,6.20
2018-10-11T04:06:57.534Z,8.17
2018-10-11T04:09:27.894Z,8.17
2018-10-11T04:11:57.946Z,7.00
2018-10-11T04:14:27.913Z,7.70
2018-10-11T04:16:58.722Z,7.27
2018-10-11T04:19:28.798Z,6.80
2018-10-11T04:21:58.843Z,9.43
2018-10-11T04:24:28.866Z,7.20
2018-10-11T04:26:58.968Z,8.80
2018-10-11T04:29:28.953Z,9.60
2018-10-11T04:31:59.001Z,10.10
2018-10-11T04:34:29.017Z,8.77
2018-10-11T04:37:00.133Z,9.50
2018-10-11T04:39:30.177Z,9.30
2018-10-11T04:42:00.204Z,7.73
2018-10-11T04:44:34.222Z,7.70
2018-10-11T04:47:05.912Z,7.53
2018-10-11T04:49:36.405Z,5.83
2018-10-11T04:52:06.501Z,8.07
2018-10-11T04:54:36.515Z,7.93
2018-10-11T04:57:06.985Z,11.07
2018-10-11T04:59:36.999Z,8.17
2018-10-11T05:02:07.076Z,8.20
2018-10-11T05:04:37.094Z,9.17
2018-10-11T05:07:07.672Z,10.30
2018-10-11T05:09:37.902Z,10.10
2018-10-11T05:12:08.303Z,10.40
2018-10-11T05:14:38.531Z,12.60
2018-10-11T05:17:09.631Z,14.03
2018-10-11T05:19:41.388Z,14.83
2018-10-11T05:22:11.391Z,14.03
2018-10-11T05:24:41.329Z,13.20
2018-10-11T05:27:11.559Z,15.33
2018-10-11T05:29:41.646Z,15.67
2018-10-11T05:32:11.594Z,16.57
2018-10-11T05:34:41.610Z,16.83
2018-10-11T05:37:12.612Z,18.10
2018-10-11T05:39:42.660Z,18.37
2018-10-11T05:42:13.132Z,17.30
2018-10-11T05:44:44.365Z,15.60
2018-10-11T05:47:15.443Z,16.13
2018-10-11T05:49:45.536Z,10.93
2018-10-11T05:52:15.892Z,9.87
2018-10-11T05:54:46.121Z,13.00
2018-10-11T05:57:16.631Z,12.53
2018-10-11T05:59:47.077Z,12.43
2018-10-11T06:02:17.272Z,13.67
2018-10-11T06:04:47.490Z,17.60
2018-10-11T06:07:18.858Z,18.40
2018-10-11T06:09:49.294Z,17.47
2018-10-11T06:12:19.491Z,18.00
2018-10-11T06:14:49.636Z,14.57
2018-10-11T06:17:20.273Z,17.30
2018-10-11T06:19:50.343Z,15.63
2018-10-11T06:22:20.504Z,12.50
2018-10-11T06:24:50.558Z,15.17
2018-10-11T06:27:21.090Z,10.17
2018-10-11T06:29:51.135Z,13.00
2018-10-11T06:32:21.343Z,13.03
2018-10-11T06:34:51.548Z,8.57
2018-10-11T06:37:22.264Z,8.10
2018-10-11T06:39:52.497Z,8.90
2018-10-11T06:42:22.763Z,10.43
2018-10-11T06:44:53.144Z,9.10
2018-10-11T06:47:23.784Z,9.40
2018-10-11T06:49:54.115Z,11.40
2018-10-11T06:52:24.258Z,8.83
2018-10-11T06:54:54.379Z,9.47
2018-10-11T06:57:24.490Z,7.90
2018-10-11T06:59:54.660Z,9.33
2018-10-11T07:02:24.771Z,8.63
2018-10-11T07:04:54.855Z,8.50
2018-10-11T07:07:25.034Z,10.83
2018-10-11T07:09:55.504Z,8.40
2018-10-11T07:12:25.749Z,9.73
2018-10-11T07:14:55.688Z,13.53
2018-10-11T07:17:25.679Z,12.43
2018-10-11T07:19:55.589Z,12.13
2018-10-11T07:22:25.548Z,10.53
2018-10-11T07:24:55.583Z,11.17
2018-10-11T07:27:26.069Z,8.50
2018-10-11T07:29:56.135Z,8.43
2018-10-11T07:32:26.139Z,8.80
2018-10-11T07:34:56.284Z,9.20
2018-10-11T07:37:26.783Z,10.13
2018-10-11T07:39:56.887Z,8.70
2018-10-11T07:42:26.840Z,9.70
2018-10-11T07:44:56.803Z,9.57
2018-10-11T07:47:27.494Z,10.43
2018-10-11T07:49:57.516Z,10.03
2018-10-11T07:52:27.371Z,11.37
2018-10-11T07:54:57.400Z,10.70
2018-10-11T07:57:27.376Z,9.40
2018-10-11T07:59:57.362Z,9.87
2018-10-11T08:02:27.393Z,9.37
2018-10-11T08:04:57.467Z,9.90
2018-10-11T08:07:27.775Z,8.90
2018-10-11T08:09:58.022Z,9.83
2018-10-11T08:12:28.143Z,9.50
2018-10-11T08:14:58.106Z,10.37
2018-10-11T08:17:28.582Z,10.20
2018-10-11T08:19:58.343Z,9.70
2018-10-11T08:22:28.544Z,8.77
2018-10-11T08:24:59.026Z,8.73
2018-10-11T08:27:29.498Z,7.97
2018-10-11T08:29:59.576Z,13.00
2018-10-11T08:32:29.860Z,9.00
2018-10-11T08:34:59.712Z,8.77
2018-10-11T08:37:30.147Z,8.30
2018-10-11T08:40:00.095Z,7.77
2018-10-11T08:42:29.991Z,7.37
2018-10-11T08:44:59.881Z,8.80
2018-10-11T08:47:29.787Z,8.67
2018-10-11T08:49:59.803Z,7.70
2018-10-11T08:52:29.612Z,7.97
2018-10-11T08:54:59.778Z,7.43
2018-10-11T08:57:29.812Z,7.20
2018-10-11T08:59:59.843Z,6.57
2018-10-11T09:02:29.803Z,7.43
2018-10-11T09:04:59.775Z,5.87
2018-10-11T09:07:29.649Z,6.60
2018-10-11T09:09:59.594Z,5.17
2018-10-11T09:12:29.764Z,6.70
2018-10-11T09:14:59.553Z,4.70
2018-10-11T09:17:29.650Z,6.80
2018-10-11T09:19:59.688Z,5.50
2018-10-11T09:22:29.643Z,5.90
2018-10-11T09:24:59.651Z,6.40
2018-10-11T09:27:30.518Z,4.37
2018-10-11T09:30:00.552Z,5.00
2018-10-11T09:32:30.615Z,5.03
2018-10-11T09:35:00.593Z,5.40
2018-10-11T09:37:31.309Z,6.00
2018-10-11T09:40:01.320Z,5.23
2018-10-11T09:42:31.436Z,4.03
2018-10-11T09:45:01.520Z,4.67
2018-10-11T09:47:31.744Z,5.10
2018-10-11T09:50:01.633Z,5.07
2018-10-11T09:52:31.598Z,5.40
2018-10-11T09:55:01.481Z,4.47
2018-10-11T09:57:35.430Z,5.00
2018-10-11T10:01:08.966Z,5.23
2018-10-11T10:03:38.961Z,5.50
2018-10-11T10:06:09.159Z,5.77
2018-10-11T10:08:39.371Z,5.20
2018-10-11T10:11:09.516Z,4.00
2018-10-11T10:13:39.986Z,3.00
2018-10-11T10:16:10.459Z,3.97
2018-10-11T10:18:40.511Z,4.00
2018-10-11T10:21:10.540Z,3.57
2018-10-11T10:23:40.538Z,3.80
2018-10-11T10:26:10.857Z,4.13
2018-10-11T10:28:40.870Z,4.40
2018-10-11T10:31:10.678Z,4.77
2018-10-11T10:33:40.681Z,3.87
2018-10-11T10:36:10.974Z,4.50
2018-10-11T10:38:40.899Z,5.00
2018-10-11T10:41:10.942Z,5.57
2018-10-11T10:43:41.091Z,4.70
2018-10-11T10:46:11.266Z,6.63
2018-10-11T10:48:41.311Z,4.63
2018-10-11T10:51:11.321Z,4.57
2018-10-11T10:53:41.379Z,3.73
2018-10-11T10:56:12.340Z,3.27
2018-10-11T10:58:42.346Z,3.50
2018-10-11T11:01:12.298Z,2.90
2018-10-11T11:03:42.274Z,3.30
2018-10-11T11:06:12.435Z,3.83
2018-10-11T11:08:42.408Z,3.70
2018-10-11T11:11:12.424Z,3.33
2018-10-11T11:13:42.738Z,3.73
2018-10-11T11:16:13.630Z,4.53
2018-10-11T11:18:43.618Z,3.53
2018-10-11T11:21:13.617Z,4.27
2018-10-11T11:23:43.626Z,4.47
2018-10-11T11:26:13.937Z,5.87
2018-10-11T11:28:43.994Z,5.40
2018-10-11T11:31:14.066Z,6.07
2018-10-11T11:33:44.165Z,6.00
2018-10-11T11:36:14.908Z,6.47
2018-10-11T11:38:44.902Z,7.90
2018-10-11T11:41:14.983Z,6.37
2018-10-11T11:43:45.108Z,6.07
2018-10-11T11:46:16.046Z,4.27
2018-10-11T11:48:46.143Z,5.10
2018-10-11T11:51:16.231Z,5.33
2018-10-11T11:53:46.403Z,5.00
2018-10-11T11:56:16.475Z,4.97
2018-10-11T11:58:46.457Z,4.87
2018-10-11T12:01:19.210Z,3.07
2018-10-11T12:03:49.311Z,3.43
2018-10-11T12:06:19.397Z,7.40
2018-10-11T12:08:49.487Z,5.97
2018-10-11T12:11:19.447Z,3.97
2018-10-11T12:13:49.691Z,3.87
2018-10-11T12:16:20.743Z,4.10
2018-10-11T12:18:50.769Z,3.20
2018-10-11T12:21:20.824Z,2.67
2018-10-11T12:23:51.085Z,3.80
2018-10-11T12:26:21.641Z,2.87
2018-10-11T12:28:51.731Z,3.90
2018-10-11T12:31:21.762Z,2.90
2018-10-11T12:33:52.010Z,3.40
2018-10-11T12:36:23.114Z,3.57
2018-10-11T12:38:53.203Z,2.47
2018-10-11T12:41:23.253Z,3.23
2018-10-11T12:43:53.235Z,3.30
2018-10-11T12:46:24.254Z,3.23
2018-10-11T12:48:54.276Z,3.50
2018-10-11T12:51:24.322Z,3.83
2018-10-11T12:53:54.394Z,3.57
2018-10-11T12:56:24.460Z,3.97
2018-10-11T12:58:55.693Z,5.30
2018-10-11T13:01:25.721Z,3.60
2018-10-11T13:03:55.760Z,4.17
2018-10-11T13:06:25.899Z,4.67
2018-10-11T13:08:55.996Z,4.07
2018-10-11T13:11:26.046Z,4.20
2018-10-11T13:13:56.204Z,4.37
2018-10-11T13:16:27.035Z,4.53
2018-10-11T13:18:56.936Z,5.80
2018-10-11T13:21:26.921Z,4.80
2018-10-11T13:23:56.873Z,4.30
2018-10-11T13:26:27.801Z,4.37
2018-10-11T13:28:57.790Z,5.47
2018-10-11T13:31:27.764Z,4.70
2018-10-11T13:33:57.863Z,5.30
2018-10-11T13:36:28.472Z,4.57
2018-10-11T13:38:58.566Z,5.50
2018-10-11T13:41:28.740Z,4.70
2018-10-11T13:43:58.727Z,5.00
2018-10-11T13:46:29.203Z,5.77
2018-10-11T13:48:59.149Z,6.87
2018-10-11T13:51:29.527Z,5.30
2018-10-11T13:53:59.850Z,5.30
2018-10-11T13:56:30.042Z,6.10
2018-10-11T13:59:00.561Z,5.70
2018-10-11T14:01:30.294Z,5.70
2018-10-11T14:04:00.734Z,7.17
2018-10-11T14:06:31.492Z,3.90
2018-10-11T14:09:01.511Z,5.17
2018-10-11T14:11:31.607Z,4.60
2018-10-11T14:14:01.935Z,4.93
2018-10-11T14:16:32.072Z,7.03
2018-10-11T14:19:02.097Z,9.00
2018-10-11T14:21:32.267Z,7.70
2018-10-11T14:24:02.475Z,6.77
2018-10-11T14:26:33.438Z,7.10
2018-10-11T14:29:03.656Z,7.43
2018-10-11T14:31:33.854Z,6.73
2018-10-11T14:34:04.082Z,7.63
2018-10-11T14:36:35.118Z,8.90
2018-10-11T14:39:06.708Z,6.40
2018-10-11T14:41:36.784Z,6.60
2018-10-11T14:44:07.253Z,6.00
2018-10-11T14:46:37.595Z,7.30
2018-10-11T14:49:07.537Z,7.60
2018-10-11T14:51:40.813Z,7.03
2018-10-11T14:54:07.803Z,6.97
2018-10-11T14:56:38.684Z,6.03
2018-10-11T14:59:08.792Z,5.60
2018-10-11T15:01:38.850Z,5.00
2018-10-11T15:04:08.847Z,7.37
2018-10-11T15:06:39.839Z,6.67
2018-10-11T15:09:11.187Z,5.77
2018-10-11T15:11:41.437Z,6.73
2018-10-11T15:14:11.440Z,6.33
2018-10-11T15:16:41.490Z,13.37
2018-10-11T15:19:11.547Z,8.53
2018-10-11T15:21:41.650Z,8.33
2018-10-11T15:24:11.620Z,5.97
2018-10-11T15:26:42.399Z,6.63
2018-10-11T15:29:12.496Z,5.70
2018-10-11T15:31:42.591Z,6.67
2018-10-11T15:34:12.637Z,7.83
2018-10-11T15:36:43.821Z,62.10
2018-10-11T15:39:14.413Z,18.63
2018-10-11T15:41:44.386Z,22.17
2018-10-11T15:44:14.211Z,9.77
2018-10-11T15:46:45.129Z,8.40
2018-10-11T15:49:15.252Z,9.87
2018-10-11T15:51:45.284Z,8.80
2018-10-11T15:54:15.268Z,8.73
2018-10-11T15:56:45.877Z,8.37
2018-10-11T15:59:15.974Z,7.27
2018-10-11T16:01:45.977Z,6.47
2018-10-11T16:04:15.858Z,11.10
2018-10-11T16:06:46.704Z,6.23
2018-10-11T16:09:16.822Z,6.37
2018-10-11T16:11:46.749Z,7.53
2018-10-11T16:14:17.156Z,6.17
2018-10-11T16:16:47.156Z,6.17
2018-10-11T16:19:17.146Z,6.50
2018-10-11T16:21:47.215Z,6.17
2018-10-11T16:24:17.218Z,5.40
2018-10-11T16:26:47.410Z,4.60
2018-10-11T16:29:17.442Z,6.10
2018-10-11T16:31:47.413Z,6.47
2018-10-11T16:34:17.437Z,5.90
2018-10-11T16:36:48.098Z,5.63
2018-10-11T16:39:18.061Z,5.43
2018-10-11T16:41:48.066Z,6.97
2018-10-11T16:44:17.999Z,5.37
2018-10-11T16:46:49.026Z,5.80
2018-10-11T16:49:18.976Z,6.40
2018-10-11T16:51:48.932Z,5.20
2018-10-11T16:54:19.046Z,4.70
2018-10-11T16:56:50.067Z,5.90
2018-10-11T16:59:20.070Z,6.53
2018-10-11T17:01:50.127Z,7.00
2018-10-11T17:04:20.112Z,6.87
2018-10-11T17:06:51.251Z,6.17
2018-10-11T17:09:21.340Z,6.07
2018-10-11T17:11:51.378Z,6.07
2018-10-11T17:14:21.711Z,6.30
2018-10-11T17:16:52.075Z,6.23
2018-10-11T17:19:22.047Z,5.80
2018-10-11T17:21:52.153Z,7.00
2018-10-11T17:24:22.081Z,6.03
2018-10-11T17:26:52.992Z,6.30
2018-10-11T17:29:23.082Z,5.43
2018-10-11T17:31:53.137Z,6.33
2018-10-11T17:34:23.182Z,6.03
2018-10-11T17:36:53.662Z,5.93
2018-10-11T17:39:23.764Z,7.13
2018-10-11T17:41:53.731Z,6.37
2018-10-11T17:44:23.733Z,5.97
2018-10-11T17:46:53.978Z,6.20
2018-10-11T17:49:24.022Z,10.47
2018-10-11T17:51:54.007Z,15.70
2018-10-11T17:54:24.063Z,15.73
2018-10-11T17:56:54.553Z,18.67
2018-10-11T17:59:24.680Z,14.53
2018-10-11T18:01:54.798Z,14.30
2018-10-11T18:04:24.852Z,17.43
2018-10-11T18:06:55.181Z,12.90
2018-10-11T18:09:25.141Z,16.60
2018-10-11T18:11:55.099Z,17.63
2018-10-11T18:14:25.617Z,17.43
2018-10-11T18:16:56.102Z,17.07
2018-10-11T18:19:26.110Z,17.60
2018-10-11T18:21:56.275Z,17.17
2018-10-11T18:24:26.294Z,18.53
2018-10-11T18:26:56.667Z,16.60
2018-10-11T18:29:26.711Z,16.93
2018-10-11T18:31:56.608Z,15.60
2018-10-11T18:34:26.531Z,16.90
2018-10-11T18:36:57.806Z,15.93
2018-10-11T18:39:27.764Z,9.40
2018-10-11T18:41:57.780Z,9.60
2018-10-11T18:44:27.722Z,7.97
2018-10-11T18:46:58.549Z,8.30
2018-10-11T18:49:28.590Z,7.27
2018-10-11T18:51:58.670Z,7.83
2018-10-11T18:54:28.763Z,7.20
2018-10-11T18:56:59.318Z,7.73
2018-10-11T18:59:29.497Z,7.00
2018-10-11T19:01:59.547Z,6.80
2018-10-11T19:04:29.435Z,6.60
2018-10-11T19:07:00.575Z,6.60
2018-10-11T19:09:30.532Z,7.63
2018-10-11T19:12:00.574Z,8.37
2018-10-11T19:14:30.717Z,7.53
2018-10-11T19:17:00.699Z,8.27
2018-10-11T19:19:30.794Z,7.80
2018-10-11T19:22:00.762Z,7.10
2018-10-11T19:24:30.799Z,8.07
2018-10-11T19:27:01.697Z,5.80
2018-10-11T19:29:31.405Z,6.37
2018-10-11T19:32:01.403Z,6.07
2018-10-11T19:34:31.516Z,8.17
2018-10-11T19:37:02.327Z,7.30
2018-10-11T19:39:32.384Z,7.30
2018-10-11T19:42:02.444Z,7.97
2018-10-11T19:44:32.366Z,7.30
2018-10-11T19:47:03.070Z,7.20
2018-10-11T19:49:33.068Z,6.93
2018-10-11T19:52:03.139Z,7.07
2018-10-11T19:54:33.201Z,8.17
2018-10-11T19:57:03.265Z,8.10
2018-10-11T19:59:33.349Z,7.70
2018-10-11T20:02:03.479Z,8.50
2018-10-11T20:04:33.647Z,7.47
2018-10-11T20:07:04.808Z,6.80
2018-10-11T20:09:34.966Z,6.67
2018-10-11T20:12:05.027Z,7.80
2018-10-11T20:14:35.440Z,7.77
2018-10-11T20:17:06.285Z,7.63
2018-10-11T20:19:36.188Z,8.77
2018-10-11T20:22:06.337Z,8.60
2018-10-11T20:24:36.294Z,7.83
2018-10-11T20:27:06.695Z,8.87
2018-10-11T20:29:37.194Z,8.80
2018-10-11T20:32:07.414Z,9.70
2018-10-11T20:34:37.451Z,8.57
2018-10-11T20:37:08.215Z,10.27
2018-10-11T20:39:38.173Z,8.63
2018-10-11T20:42:08.411Z,9.10
2018-10-11T20:44:38.432Z,9.33
2018-10-11T20:47:09.239Z,9.13
2018-10-11T20:49:39.396Z,7.67
2018-10-11T20:52:09.497Z,8.23
2018-10-11T20:54:39.612Z,9.23
2018-10-11T20:57:10.458Z,9.90
2018-10-11T20:59:40.677Z,10.83
2018-10-11T21:02:10.834Z,10.50
2018-10-11T21:04:40.898Z,9.93
2018-10-11T21:07:11.034Z,8.63
2018-10-11T21:09:41.131Z,8.57
2018-10-11T21:12:11.171Z,9.20
2018-10-11T21:14:41.463Z,9.33
2018-10-11T21:17:12.355Z,9.60
2018-10-11T21:19:42.381Z,9.20
2018-10-11T21:22:12.432Z,8.80
2018-10-11T21:24:42.405Z,9.77
2018-10-11T21:27:13.392Z,9.53
2018-10-11T21:29:43.446Z,9.90
2018-10-11T21:32:13.794Z,9.87
2018-10-11T21:34:43.845Z,9.63
2018-10-11T21:37:14.477Z,9.97
2018-10-11T21:39:44.547Z,9.40
2018-10-11T21:42:14.483Z,9.30
2018-10-11T21:44:44.439Z,8.90
2018-10-11T21:47:15.684Z,7.73
2018-10-11T21:49:45.853Z,8.77
2018-10-11T21:52:15.799Z,9.33
2018-10-11T21:54:45.940Z,9.00
2018-10-11T21:57:15.844Z,8.20
2018-10-11T21:59:46.085Z,8.67
2018-10-11T22:02:16.151Z,8.60
2018-10-11T22:04:46.146Z,8.40
2018-10-11T22:07:16.363Z,9.53
2018-10-11T22:09:46.390Z,9.50
2018-10-11T22:12:16.523Z,10.43
2018-10-11T22:14:46.753Z,8.27
2018-10-11T22:17:17.951Z,7.80
2018-10-11T22:19:47.980Z,8.73
2018-10-11T22:22:18.056Z,8.53
2018-10-11T22:24:48.081Z,6.93
2018-10-11T22:27:18.813Z,7.10
2018-10-11T22:29:48.891Z,7.57
2018-10-11T22:32:18.980Z,8.57
2018-10-11T22:34:49.091Z,7.47
2018-10-11T22:37:19.064Z,7.40
2018-10-11T22:39:49.169Z,8.20
2018-10-11T22:42:19.280Z,8.10
2018-10-11T22:44:49.348Z,8.13
2018-10-11T22:47:19.718Z,7.47
2018-10-11T22:49:49.783Z,7.37
2018-10-11T22:52:19.897Z,8.03
2018-10-11T22:54:49.936Z,7.50
2018-10-11T22:57:20.719Z,7.20
2018-10-11T22:59:50.910Z,7.97
2018-10-11T23:02:21.065Z,7.10
2018-10-11T23:04:51.180Z,7.00
2018-10-11T23:07:21.249Z,7.80
2018-10-11T23:09:51.289Z,8.07
2018-10-11T23:12:21.383Z,6.47
2018-10-11T23:14:52.020Z,5.93
2018-10-11T23:17:22.426Z,7.20
2018-10-11T23:19:52.508Z,7.40
2018-10-11T23:22:22.549Z,7.00
2018-10-11T23:24:52.674Z,6.47
2018-10-11T23:27:22.756Z,6.13
2018-10-11T23:29:52.904Z,7.17
2018-10-11T23:32:22.867Z,7.00
2018-10-11T23:34:52.877Z,6.40
2018-10-11T23:37:23.896Z,6.13
2018-10-11T23:39:54.023Z,6.27
2018-10-11T23:42:24.101Z,6.13
2018-10-11T23:44:54.209Z,6.97
2018-10-11T23:47:24.688Z,6.57
2018-10-11T23:49:54.838Z,6.97
2018-10-11T23:52:24.891Z,6.70
2018-10-11T23:54:55.118Z,6.60
2018-10-11T23:57:25.416Z,6.20
2018-10-11T23:59:55.528Z,6.50
